sensor_id;sensor_type;location;lat;lon;timestamp;P1;durP1;ratioP1;P2;durP2;ratioP2
23634;SDS011;11994;51.038;16.974;2023-04-03T00:00:48;6.10;;;2.60;;
23634;SDS011;11994;51.038;16.974;2023-04-03T00:03:14;7.30;;;2.70;;
23634;SDS011;11994;51.038;16.974;2023-04-03T00:05:40;8.90;;;2.70;;
23634;SDS011;11994;51.038;16.974;2023-04-03T00:08:06;9.10;;;3.30;;
23634;SDS011;11994;51.038;16.974;2023-04-03T00:10:32;7.20;;;3.10;;
23634;SDS011;11994;51.038;16.974;2023-04-03T00:12:58;10.50;;;3.30;;
23634;SDS011;11994;51.038;16.974;2023-04-03T00:15:23;8.00;;;3.10;;
23634;SDS011;11994;51.038;16.974;2023-04-03T00:17:49;9.30;;;3.30;;
23634;SDS011;11994;51.038;16.974;2023-04-03T00:20:14;9.50;;;3.60;;
23634;SDS011;11994;51.038;16.974;2023-04-03T00:22:40;9.80;;;3.00;;
23634;SDS011;11994;51.038;16.974;2023-04-03T00:25:05;8.60;;;3.20;;
23634;SDS011;11994;51.038;16.974;2023-04-03T00:27:31;10.40;;;2.90;;
23634;SDS011;11994;51.038;16.974;2023-04-03T00:29:57;7.80;;;2.90;;
23634;SDS011;11994;51.038;16.974;2023-04-03T00:32:22;9.10;;;3.00;;
23634;SDS011;11994;51.038;16.974;2023-04-03T00:34:48;7.90;;;3.20;;
23634;SDS011;11994;51.038;16.974;2023-04-03T00:37:13;8.60;;;3.50;;
23634;SDS011;11994;51.038;16.974;2023-04-03T00:39:39;8.80;;;3.00;;
23634;SDS011;11994;51.038;16.974;2023-04-03T00:42:04;10.50;;;3.00;;
23634;SDS011;11994;51.038;16.974;2023-04-03T00:46:58;10.70;;;3.20;;
23634;SDS011;11994;51.038;16.974;2023-04-03T00:49:23;8.90;;;2.70;;
23634;SDS011;11994;51.038;16.974;2023-04-03T00:51:49;9.60;;;3.00;;
23634;SDS011;11994;51.038;16.974;2023-04-03T00:54:14;7.20;;;2.90;;
23634;SDS011;11994;51.038;16.974;2023-04-03T00:56:40;9.40;;;3.10;;
23634;SDS011;11994;51.038;16.974;2023-04-03T00:59:08;9.60;;;2.80;;
23634;SDS011;11994;51.038;16.974;2023-04-03T01:01:37;8.00;;;3.10;;
23634;SDS011;11994;51.038;16.974;2023-04-03T01:04:03;7.00;;;2.70;;
23634;SDS011;11994;51.038;16.974;2023-04-03T01:06:32;9.20;;;3.00;;
23634;SDS011;11994;51.038;16.974;2023-04-03T01:09:00;7.40;;;2.80;;
23634;SDS011;11994;51.038;16.974;2023-04-03T01:11:26;10.00;;;3.50;;
23634;SDS011;11994;51.038;16.974;2023-04-03T01:13:52;6.80;;;2.90;;
23634;SDS011;11994;51.038;16.974;2023-04-03T01:16:18;9.70;;;2.80;;
23634;SDS011;11994;51.038;16.974;2023-04-03T01:18:44;9.90;;;3.30;;
23634;SDS011;11994;51.038;16.974;2023-04-03T01:26:18;10.70;;;3.40;;
23634;SDS011;11994;51.038;16.974;2023-04-03T01:28:43;7.30;;;2.60;;
23634;SDS011;11994;51.038;16.974;2023-04-03T01:33:52;9.20;;;3.00;;
23634;SDS011;11994;51.038;16.974;2023-04-03T01:36:19;9.10;;;3.10;;
23634;SDS011;11994;51.038;16.974;2023-04-03T01:38:47;8.10;;;2.70;;
23634;SDS011;11994;51.038;16.974;2023-04-03T01:41:13;7.30;;;2.70;;
23634;SDS011;11994;51.038;16.974;2023-04-03T01:43:38;10.50;;;3.20;;
23634;SDS011;11994;51.038;16.974;2023-04-03T01:46:03;9.90;;;3.40;;
23634;SDS011;11994;51.038;16.974;2023-04-03T01:48:29;8.30;;;2.80;;
23634;SDS011;11994;51.038;16.974;2023-04-03T01:50:54;7.90;;;3.20;;
23634;SDS011;11994;51.038;16.974;2023-04-03T01:53:20;9.20;;;3.00;;
23634;SDS011;11994;51.038;16.974;2023-04-03T01:55:46;8.90;;;2.80;;
23634;SDS011;11994;51.038;16.974;2023-04-03T01:58:11;6.80;;;2.90;;
23634;SDS011;11994;51.038;16.974;2023-04-03T02:00:37;7.60;;;2.60;;
23634;SDS011;11994;51.038;16.974;2023-04-03T02:03:02;6.20;;;2.60;;
23634;SDS011;11994;51.038;16.974;2023-04-03T02:05:28;9.70;;;3.20;;
23634;SDS011;11994;51.038;16.974;2023-04-03T02:07:53;7.70;;;3.10;;
23634;SDS011;11994;51.038;16.974;2023-04-03T02:10:19;8.80;;;3.40;;
23634;SDS011;11994;51.038;16.974;2023-04-03T02:12:44;9.10;;;3.10;;
23634;SDS011;11994;51.038;16.974;2023-04-03T02:15:10;7.00;;;3.00;;
23634;SDS011;11994;51.038;16.974;2023-04-03T02:17:35;10.00;;;3.10;;
23634;SDS011;11994;51.038;16.974;2023-04-03T02:20:01;7.80;;;2.90;;
23634;SDS011;11994;51.038;16.974;2023-04-03T02:22:28;9.30;;;3.20;;
23634;SDS011;11994;51.038;16.974;2023-04-03T02:24:53;7.10;;;2.80;;
23634;SDS011;11994;51.038;16.974;2023-04-03T02:27:18;6.90;;;2.80;;
23634;SDS011;11994;51.038;16.974;2023-04-03T02:29:44;10.10;;;3.10;;
23634;SDS011;11994;51.038;16.974;2023-04-03T02:32:09;7.80;;;3.00;;
23634;SDS011;11994;51.038;16.974;2023-04-03T02:34:34;10.00;;;3.30;;
23634;SDS011;11994;51.038;16.974;2023-04-03T02:37:00;10.90;;;3.70;;
23634;SDS011;11994;51.038;16.974;2023-04-03T02:39:25;10.40;;;3.10;;
23634;SDS011;11994;51.038;16.974;2023-04-03T02:41:51;8.00;;;3.00;;
23634;SDS011;11994;51.038;16.974;2023-04-03T02:44:16;8.30;;;2.90;;
23634;SDS011;11994;51.038;16.974;2023-04-03T02:46:42;8.60;;;3.20;;
23634;SDS011;11994;51.038;16.974;2023-04-03T02:49:08;8.40;;;3.40;;
23634;SDS011;11994;51.038;16.974;2023-04-03T02:51:33;10.10;;;3.40;;
23634;SDS011;11994;51.038;16.974;2023-04-03T02:53:58;11.10;;;4.20;;
23634;SDS011;11994;51.038;16.974;2023-04-03T02:56:24;7.40;;;3.70;;
23634;SDS011;11994;51.038;16.974;2023-04-03T02:58:51;9.00;;;3.60;;
23634;SDS011;11994;51.038;16.974;2023-04-03T03:01:17;8.70;;;3.60;;
23634;SDS011;11994;51.038;16.974;2023-04-03T03:03:42;7.90;;;3.40;;
23634;SDS011;11994;51.038;16.974;2023-04-03T03:06:09;8.50;;;3.40;;
23634;SDS011;11994;51.038;16.974;2023-04-03T03:08:36;10.20;;;3.70;;
23634;SDS011;11994;51.038;16.974;2023-04-03T03:11:02;11.00;;;3.60;;
23634;SDS011;11994;51.038;16.974;2023-04-03T03:13:29;9.50;;;4.00;;
23634;SDS011;11994;51.038;16.974;2023-04-03T03:15:54;10.50;;;4.40;;
23634;SDS011;11994;51.038;16.974;2023-04-03T03:18:20;8.70;;;3.90;;
23634;SDS011;11994;51.038;16.974;2023-04-03T03:20:46;12.40;;;4.10;;
23634;SDS011;11994;51.038;16.974;2023-04-03T03:23:12;8.10;;;3.20;;
23634;SDS011;11994;51.038;16.974;2023-04-03T03:25:38;8.30;;;3.60;;
23634;SDS011;11994;51.038;16.974;2023-04-03T03:28:04;9.90;;;3.40;;
23634;SDS011;11994;51.038;16.974;2023-04-03T03:30:30;8.50;;;3.80;;
23634;SDS011;11994;51.038;16.974;2023-04-03T03:32:55;8.30;;;3.50;;
23634;SDS011;11994;51.038;16.974;2023-04-03T03:35:21;8.00;;;3.20;;
23634;SDS011;11994;51.038;16.974;2023-04-03T03:37:46;10.80;;;3.60;;
23634;SDS011;11994;51.038;16.974;2023-04-03T03:40:11;8.20;;;3.70;;
23634;SDS011;11994;51.038;16.974;2023-04-03T03:42:38;9.90;;;3.40;;
23634;SDS011;11994;51.038;16.974;2023-04-03T03:45:03;9.10;;;3.10;;
23634;SDS011;11994;51.038;16.974;2023-04-03T03:47:29;10.50;;;4.60;;
23634;SDS011;11994;51.038;16.974;2023-04-03T03:49:55;10.40;;;3.70;;
23634;SDS011;11994;51.038;16.974;2023-04-03T03:52:20;10.20;;;4.20;;
23634;SDS011;11994;51.038;16.974;2023-04-03T03:54:45;11.20;;;4.40;;
23634;SDS011;11994;51.038;16.974;2023-04-03T03:57:11;12.80;;;4.20;;
23634;SDS011;11994;51.038;16.974;2023-04-03T03:59:36;12.20;;;3.80;;
23634;SDS011;11994;51.038;16.974;2023-04-03T04:02:01;11.30;;;3.70;;
23634;SDS011;11994;51.038;16.974;2023-04-03T04:04:27;9.20;;;3.90;;
23634;SDS011;11994;51.038;16.974;2023-04-03T04:06:52;9.50;;;4.00;;
23634;SDS011;11994;51.038;16.974;2023-04-03T04:09:17;7.70;;;3.80;;
23634;SDS011;11994;51.038;16.974;2023-04-03T04:11:43;10.80;;;4.30;;
23634;SDS011;11994;51.038;16.974;2023-04-03T04:14:08;11.70;;;4.10;;
23634;SDS011;11994;51.038;16.974;2023-04-03T04:16:35;8.40;;;3.60;;
23634;SDS011;11994;51.038;16.974;2023-04-03T04:19:00;8.50;;;3.70;;
23634;SDS011;11994;51.038;16.974;2023-04-03T04:21:26;8.70;;;3.50;;
23634;SDS011;11994;51.038;16.974;2023-04-03T04:23:51;9.30;;;4.00;;
23634;SDS011;11994;51.038;16.974;2023-04-03T04:26:17;12.40;;;4.30;;
23634;SDS011;11994;51.038;16.974;2023-04-03T04:28:42;14.90;;;4.30;;
23634;SDS011;11994;51.038;16.974;2023-04-03T04:31:07;7.30;;;4.40;;
23634;SDS011;11994;51.038;16.974;2023-04-03T04:33:33;13.70;;;4.60;;
23634;SDS011;11994;51.038;16.974;2023-04-03T04:35:58;10.90;;;4.60;;
23634;SDS011;11994;51.038;16.974;2023-04-03T04:38:24;8.00;;;3.60;;
23634;SDS011;11994;51.038;16.974;2023-04-03T04:40:49;8.90;;;4.10;;
23634;SDS011;11994;51.038;16.974;2023-04-03T04:43:15;10.00;;;4.70;;
23634;SDS011;11994;51.038;16.974;2023-04-03T04:45:41;12.90;;;4.70;;
23634;SDS011;11994;51.038;16.974;2023-04-03T04:48:07;11.70;;;4.60;;
23634;SDS011;11994;51.038;16.974;2023-04-03T04:50:32;10.10;;;4.50;;
23634;SDS011;11994;51.038;16.974;2023-04-03T04:52:58;13.00;;;4.90;;
23634;SDS011;11994;51.038;16.974;2023-04-03T04:55:23;13.00;;;4.30;;
23634;SDS011;11994;51.038;16.974;2023-04-03T04:57:49;10.30;;;3.30;;
23634;SDS011;11994;51.038;16.974;2023-04-03T05:00:14;10.70;;;3.40;;
23634;SDS011;11994;51.038;16.974;2023-04-03T05:02:40;11.50;;;4.00;;
23634;SDS011;11994;51.038;16.974;2023-04-03T05:05:06;7.70;;;4.10;;
23634;SDS011;11994;51.038;16.974;2023-04-03T05:07:31;9.30;;;4.20;;
23634;SDS011;11994;51.038;16.974;2023-04-03T05:09:57;17.80;;;4.70;;
23634;SDS011;11994;51.038;16.974;2023-04-03T05:12:22;10.10;;;3.80;;
23634;SDS011;11994;51.038;16.974;2023-04-03T05:14:48;14.30;;;3.70;;
23634;SDS011;11994;51.038;16.974;2023-04-03T05:17:13;7.90;;;3.20;;
23634;SDS011;11994;51.038;16.974;2023-04-03T05:19:38;8.80;;;3.70;;
23634;SDS011;11994;51.038;16.974;2023-04-03T05:22:04;9.70;;;3.50;;
23634;SDS011;11994;51.038;16.974;2023-04-03T05:24:29;10.70;;;3.80;;
23634;SDS011;11994;51.038;16.974;2023-04-03T05:26:55;9.10;;;3.10;;
23634;SDS011;11994;51.038;16.974;2023-04-03T05:29:20;12.40;;;3.80;;
23634;SDS011;11994;51.038;16.974;2023-04-03T05:31:48;8.00;;;3.10;;
23634;SDS011;11994;51.038;16.974;2023-04-03T05:34:15;7.60;;;3.40;;
23634;SDS011;11994;51.038;16.974;2023-04-03T05:36:40;8.00;;;3.00;;
23634;SDS011;11994;51.038;16.974;2023-04-03T05:39:06;8.90;;;3.30;;
23634;SDS011;11994;51.038;16.974;2023-04-03T05:41:32;10.50;;;3.20;;
23634;SDS011;11994;51.038;16.974;2023-04-03T05:43:57;10.50;;;3.20;;
23634;SDS011;11994;51.038;16.974;2023-04-03T05:46:22;9.60;;;3.30;;
23634;SDS011;11994;51.038;16.974;2023-04-03T05:48:48;7.30;;;2.90;;
23634;SDS011;11994;51.038;16.974;2023-04-03T05:51:32;9.30;;;3.00;;
23634;SDS011;11994;51.038;16.974;2023-04-03T05:54:08;8.40;;;3.40;;
23634;SDS011;11994;51.038;16.974;2023-04-03T05:56:42;10.00;;;3.40;;
23634;SDS011;11994;51.038;16.974;2023-04-03T05:59:08;7.90;;;3.40;;
23634;SDS011;11994;51.038;16.974;2023-04-03T06:01:53;10.20;;;3.80;;
23634;SDS011;11994;51.038;16.974;2023-04-03T06:04:19;13.10;;;3.90;;
23634;SDS011;11994;51.038;16.974;2023-04-03T06:07:04;9.40;;;3.10;;
23634;SDS011;11994;51.038;16.974;2023-04-03T06:09:30;9.10;;;3.30;;
23634;SDS011;11994;51.038;16.974;2023-04-03T06:11:57;11.10;;;3.10;;
23634;SDS011;11994;51.038;16.974;2023-04-03T06:14:27;8.70;;;3.50;;
23634;SDS011;11994;51.038;16.974;2023-04-03T06:16:53;9.90;;;3.90;;
23634;SDS011;11994;51.038;16.974;2023-04-03T06:19:21;11.80;;;3.60;;
23634;SDS011;11994;51.038;16.974;2023-04-03T06:21:47;7.50;;;3.50;;
23634;SDS011;11994;51.038;16.974;2023-04-03T06:24:13;13.00;;;4.30;;
23634;SDS011;11994;51.038;16.974;2023-04-03T06:26:46;9.00;;;3.80;;
23634;SDS011;11994;51.038;16.974;2023-04-03T06:29:18;9.60;;;3.00;;
